Serenade Of The Seas — C6FV8 — position and weather

sailwx.info

Track history (hours):
 
Tides and Currents Weather Stations Pressure Air Temp Water Temp Dewpoint Dewpoint Depression Visibility Wind Speed Wind Dir Waves Ship Positions

Serenade Of The Seas

Operator: Royal Caribbean Cruises Ltd

Last reported at 2017-May-25 01:16 UTC. Time now 2017-May-25 03:02 UTC.
Position N 59°57' E 025°54'.

Length 294 m; draft 8.5 m.

Type: Ship. MMSI: 311492000.

Date/timePositionNaut miles runAvg speedWind from/ knotsBaromVisibWave heightAir tempDewpointWater temp
2017-May-25 01:16N 59°57' E 025°54'621.8
2017-May-25 01:00N 59°58' E 026°04'1121.3
2017-May-25 00:30N 60°01' E 026°25'1019.5
2017-May-25 00:00N 60°01' E 026°45'1817.4
2017-May-24 22:58N 60°05' E 027°20'1517.9
2017-May-24 22:07N 60°12' E 027°46'215.9
2017-May-24 22:00N 60°12' E 027°50'918.2
2017-May-24 21:30N 60°10' E 028°08'918.0
2017-May-24 21:00N 60°05' E 028°23'917.8
2017-May-24 20:30N 60°03' E 028°41'918.0
2017-May-24 20:00N 60°02' E 028°59'2014.6
2017-May-24 18:36N 59°60' E 029°39'310.9
2017-May-24 18:22N 59°59' E 029°44'410.0
2017-May-24 18:00N 59°57' E 029°50'611.1
2017-May-24 17:30N 59°55' E 030°01'5 9.3
2017-May-24 17:00N 59°57' E 030°10'1 1.4
2017-May-24 16:28N 59°57' E 030°11'0 0.0
2017-May-24 15:58N 59°57' E 030°11'0 0.0
2017-May-24 15:28N 59°57' E 030°11'0 0.0
2017-May-24 14:58N 59°57' E 030°11'0 0.0
2017-May-24 14:28N 59°57' E 030°11'0 0.0
2017-May-24 13:28N 59°57' E 030°11'0 0.0
2017-May-24 12:58N 59°57' E 030°11'0 0.0
2017-May-24 12:28N 59°57' E 030°11'0 0.0
2017-May-24 11:58N 59°57' E 030°11'0 0.0
2017-May-24 11:28N 59°57' E 030°11'0 0.0
2017-May-24 10:58N 59°57' E 030°11'0 0.0
2017-May-24 10:28N 59°57' E 030°11'0 0.0
2017-May-24 09:58N 59°57' E 030°11'0 0.0
2017-May-24 09:28N 59°57' E 030°11'0 0.0
2017-May-24 08:58N 59°57' E 030°11'0 0.0
2017-May-24 08:28N 59°57' E 030°11'0 0.0
2017-May-24 07:58N 59°57' E 030°11'0 0.0
2017-May-24 07:28N 59°57' E 030°11'0 0.0
2017-May-24 06:58N 59°57' E 030°11'0 0.0
2017-May-24 06:28N 59°57' E 030°11'0 0.0
2017-May-24 05:58N 59°57' E 030°11'0 0.0
2017-May-24 05:28N 59°57' E 030°11'0 0.0
2017-May-24 04:58N 59°57' E 030°11'0 0.0
2017-May-24 04:28N 59°57' E 030°11'0 0.0
2017-May-24 03:58N 59°57' E 030°11'0 0.0
2017-May-24 03:29N 59°57' E 030°11'2 3.5
2017-May-24 03:00N 59°57' E 030°08'5 9.8
2017-May-24 02:30N 59°56' E 029°58'612.0
2017-May-24 02:00N 59°58' E 029°47'2312.5
2017-May-24 00:13N 60°02' E 029°03'516.0
2017-May-23 23:54N 60°02' E 028°53'616.2
2017-May-23 23:30N 60°02' E 028°40'815.9
2017-May-23 23:00N 60°04' E 028°25'816.2
2017-May-23 22:30N 60°08' E 028°11'816.2
2017-May-23 22:00N 60°10' E 027°55'815.1
2017-May-23 21:30N 60°09' E 027°40'815.9
2017-May-23 21:00N 60°05' E 027°27'815.7
2017-May-23 20:31N 60°01' E 027°13'815.6
2017-May-23 20:01N 59°58' E 026°59'815.8
2017-May-23 19:31N 59°59' E 026°43'815.7
2017-May-23 19:01N 59°58' E 026°28'816.0
2017-May-23 18:30N 59°55' E 026°12'815.9
2017-May-23 18:00N 59°53' E 025°57'815.9
2017-May-23 17:30N 59°52' E 025°41'47 3.7
2017-May-23 04:52N 59°30' E 024°19'717.5
2017-May-23 04:29N 59°30' E 024°06'917.6
2017-May-23 04:00N 59°30' E 023°49'917.5
2017-May-23 03:30N 59°30' E 023°33'917.4
2017-May-23 03:00N 59°30' E 023°15'917.9
2017-May-23 02:30N 59°28' E 022°58'10416.8
2017-May-22 20:17N 59°47' E 019°36'517.0
2017-May-22 20:00N 59°47' E 019°26'713.9
2017-May-22 19:31N 59°44' E 019°13'816.5
2017-May-22 19:00N 59°41' E 018°58'5 9.8
2017-May-22 18:30N 59°38' E 018°51'612.2
2017-May-22 18:01N 59°35' E 018°40'910.3
2017-May-22 17:08N 59°29' E 018°27'212.8
2017-May-22 17:00N 59°27' E 018°26'4 8.5
2017-May-22 16:29N 59°23' E 018°27'3 7.2
2017-May-22 16:00N 59°22' E 018°20'611.6
2017-May-22 15:30N 59°19' E 018°10'2 3.7
2017-May-22 14:56N 59°19' E 018°06'0 0.0
2017-May-22 13:59N 59°19' E 018°06'0 0.0
2017-May-22 13:29N 59°19' E 018°06'0 0.0
2017-May-22 12:59N 59°19' E 018°06'0 0.0
2017-May-22 12:29N 59°19' E 018°06'0 0.0
2017-May-22 11:59N 59°19' E 018°06'0 0.0
2017-May-22 11:29N 59°19' E 018°06'0 0.0
2017-May-22 10:59N 59°19' E 018°06'0 0.0
2017-May-22 10:29N 59°19' E 018°06'0 0.0
2017-May-22 09:59N 59°19' E 018°06'0 0.0
2017-May-22 09:29N 59°19' E 018°06'0 0.0
2017-May-22 08:59N 59°19' E 018°06'0 0.0
2017-May-22 08:29N 59°19' E 018°06'0 0.0
2017-May-22 07:59N 59°19' E 018°06'0 0.0
2017-May-22 07:29N 59°19' E 018°06'0 0.0
2017-May-22 06:59N 59°19' E 018°06'2 3.6
2017-May-22 06:31N 59°19' E 018°09'611.5
2017-May-22 06:00N 59°23' E 018°18'4 8.9
2017-May-22 05:30N 59°22' E 018°27'5 9.3
2017-May-22 05:01N 59°27' E 018°24'20712.5
2017-May-21 12:28N 56°05' E 016°52'920.3
2017-May-21 12:00N 55°60' E 016°39'1020.2
2017-May-21 11:30N 55°54' E 016°24'1020.3
2017-May-21 11:00N 55°49' E 016°08'1020.4
2017-May-21 10:30N 55°44' E 015°53'1020.1
2017-May-21 10:00N 55°39' E 015°37'1020.2
2017-May-21 09:30N 55°35' E 015°21'1020.4
2017-May-21 09:00N 55°30' E 015°04'1020.5
2017-May-21 08:30N 55°26' E 014°48'1020.1
2017-May-21 08:00N 55°20' E 014°34'1020.0
2017-May-21 07:30N 55°12' E 014°22'1020.6
2017-May-21 07:00N 55°05' E 014°11'1020.3
2017-May-21 06:30N 54°59' E 013°56'2320.2
2017-May-21 05:22N 54°51' E 013°18'720.2
2017-May-21 05:00N 54°49' E 013°06'1019.9
2017-May-21 04:30N 54°47' E 012°49'1019.1
2017-May-21 04:00N 54°42' E 012°35'1119.2
2017-May-21 03:26N 54°36' E 012°20'3816.3
2017-May-21 01:08N 54°33' E 011°15'620.2
2017-May-21 00:50N 54°37' E 011°06'719.9
2017-May-21 00:30N 54°40' E 010°57'917.8
2017-May-21 00:00N 54°48' E 010°51'1019.8
2017-May-20 23:30N 54°58' E 010°58'8813.8
2017-May-20 17:10N 56°10' E 012°26'318.8
2017-May-20 17:00N 56°08' E 012°30'917.2
2017-May-20 16:30N 56°01' E 012°40'816.6
2017-May-20 16:00N 55°54' E 012°45'816.4
2017-May-20 15:30N 55°46' E 012°41'4 7.3
2017-May-20 15:01N 55°43' E 012°37'0 0.0
2017-May-20 13:58N 55°43' E 012°37'0 0.0
2017-May-20 13:28N 55°43' E 012°37'0 0.0
2017-May-20 12:58N 55°43' E 012°37'0 0.0
2017-May-20 12:28N 55°43' E 012°37'0 0.0
2017-May-20 11:55N 55°43' E 012°37'0 0.0
2017-May-20 11:28N 55°43' E 012°37'0 0.0
2017-May-20 10:58N 55°43' E 012°37'0 0.0
2017-May-20 10:28N 55°43' E 012°37'0 0.0
2017-May-20 09:58N 55°43' E 012°37'0 0.0
2017-May-20 09:28N 55°43' E 012°37'0 0.0
2017-May-20 08:58N 55°43' E 012°37'0 0.0
2017-May-20 08:28N 55°43' E 012°37'0 0.0
2017-May-20 07:58N 55°43' E 012°37'0 0.0
2017-May-20 07:28N 55°43' E 012°37'0 0.0
2017-May-20 06:58N 55°43' E 012°37'0 0.0
2017-May-20 06:28N 55°43' E 012°37'0 0.0
2017-May-20 05:58N 55°43' E 012°37'0 0.0
2017-May-20 05:28N 55°43' E 012°37'0 0.0
2017-May-20 04:58N 55°43' E 012°37'0 0.4
2017-May-20 04:30N 55°43' E 012°37'4 8.9
2017-May-20 04:00N 55°47' E 012°42'713.9
2017-May-20 03:31N 55°53' E 012°39'714.3
2017-May-20 03:01N 56°00' E 012°40'815.4
2017-May-20 02:31N 56°07' E 012°32'3817.1
2017-May-20 00:16N 56°38' E 011°54'617.8
2017-May-19 23:57N 56°44' E 011°51'815.1
2017-May-19 23:27N 56°51' E 011°47'818.8
2017-May-19 23:01N 56°59' E 011°42'1018.7
2017-May-19 22:30N 57°08' E 011°36'1018.1
2017-May-19 21:57N 57°17' E 011°30'817.9
2017-May-19 21:30N 57°25' E 011°25'917.6
2017-May-19 21:00N 57°32' E 011°15'918.0
2017-May-19 20:31N 57°38' E 011°03'918.2
2017-May-19 20:00N 57°44' E 010°50'918.4
2017-May-19 19:30N 57°50' E 010°37'918.1
2017-May-19 18:59N 57°50' E 010°19'918.1
2017-May-19 18:31N 57°50' E 010°03'918.1
2017-May-19 18:01N 57°50' E 009°46'918.2
2017-May-19 17:30N 57°48' E 009°29'918.2
2017-May-19 17:00N 57°47' E 009°12'917.3
2017-May-19 16:30N 57°46' E 008°56'917.1
2017-May-19 16:00N 57°44' E 008°40'3718.5
2017-May-19 14:01N 57°42' E 007°31'1019.5
2017-May-19 13:30N 57°43' E 007°12'1019.6
2017-May-19 13:00N 57°43' E 006°54'1219.6
2017-May-19 12:23N 57°44' E 006°32'919.5
2017-May-19 11:56N 57°49' E 006°18'919.9
2017-May-19 11:30N 57°54' E 006°05'2720.0
2017-May-19 10:07N 58°14' E 005°28'1220.1
2017-May-19 09:31N 58°22' E 005°11'020.5
2017-May-19 09:30N 58°22' E 005°11'1020.5
2017-May-19 09:00N 58°29' E 004°58'1221.4
2017-May-19 08:27N 58°38' E 004°42'21819.3
2017-May-18 21:09N 62°16' E 004°37'320.1
2017-May-18 21:00N 62°18' E 004°43'1020.1
2017-May-18 20:30N 62°22' E 005°03'1019.6
2017-May-18 20:00N 62°27' E 005°21'918.9
2017-May-18 19:30N 62°30' E 005°40'916.9
2017-May-18 19:00N 62°27' E 005°58'713.6
2017-May-18 18:30N 62°23' E 006°10'917.3
2017-May-18 18:00N 62°25' E 006°28'817.2
2017-May-18 17:31N 62°27' E 006°46'814.7
2017-May-18 17:00N 62°21' E 006°56'816.4
2017-May-18 16:30N 62°14' E 007°01'814.3
2017-May-18 15:59N 62°06' E 006°58'4 8.6
2017-May-18 15:30N 62°07' E 007°07'3 5.0
2017-May-18 15:00N 62°06' E 007°12'0 0.1
2017-May-18 14:29N 62°06' E 007°12'0 0.0
2017-May-18 13:29N 62°06' E 007°12'0 0.0
2017-May-18 12:59N 62°06' E 007°12'0 0.0
2017-May-18 12:29N 62°06' E 007°12'0 0.0
2017-May-18 11:59N 62°06' E 007°12'0 0.0
2017-May-18 11:29N 62°06' E 007°12'0 0.0
2017-May-18 10:59N 62°06' E 007°12'0 0.0
2017-May-18 10:29N 62°06' E 007°12'0 0.0
2017-May-18 09:59N 62°06' E 007°12'0 0.0
2017-May-18 09:29N 62°06' E 007°12'0 0.0
2017-May-18 08:59N 62°06' E 007°12'0 0.0
2017-May-18 08:29N 62°06' E 007°12'0 0.0
2017-May-18 07:59N 62°06' E 007°12'0 0.0
2017-May-18 07:29N 62°06' E 007°12'0 0.0
2017-May-18 06:59N 62°06' E 007°12'0 0.0
2017-May-18 06:29N 62°06' E 007°12'0 0.0
2017-May-18 05:59N 62°06' E 007°12'0 0.0
2017-May-18 05:29N 62°06' E 007°12'0 0.0
2017-May-18 04:59N 62°06' E 007°12'0 0.0
2017-May-18 04:29N 62°06' E 007°12'0 0.1
2017-May-18 04:00N 62°06' E 007°12'2 4.5
2017-May-18 03:30N 62°07' E 007°07'3 6.1
2017-May-18 02:59N 62°05' E 007°02'3 4.7
2017-May-18 02:16N 62°09' E 006°58'2 6.2
2017-May-18 02:00N 62°10' E 007°00'3 6.0
2017-May-18 01:30N 62°13' E 007°01'3 6.2
2017-May-18 01:00N 62°16' E 007°01'3 6.1
2017-May-18 00:30N 62°19' E 006°59'3 6.2
2017-May-17 23:59N 62°22' E 006°56'3 6.2
2017-May-17 23:30N 62°25' E 006°56'3 5.8
2017-May-17 23:00N 62°27' E 006°51'3 6.4
2017-May-17 22:30N 62°27' E 006°44'3 6.2
2017-May-17 22:00N 62°27' E 006°38'3 6.1
2017-May-17 21:30N 62°26' E 006°32'3 6.1
2017-May-17 21:00N 62°24' E 006°25'3 6.1
2017-May-17 20:30N 62°23' E 006°19'3 6.1
2017-May-17 20:00N 62°23' E 006°13'3 5.8
2017-May-17 19:30N 62°24' E 006°07'3 4.8
2017-May-17 18:47N 62°27' E 006°03'2 5.7
2017-May-17 18:29N 62°27' E 006°07'2 3.5
2017-May-17 18:00N 62°28' E 006°09'0 0.0
2017-May-17 17:30N 62°28' E 006°09'0 0.0
2017-May-17 17:00N 62°28' E 006°09'0 0.0
2017-May-17 16:27N 62°28' E 006°09'0 0.0
2017-May-17 16:00N 62°28' E 006°09'0 0.0
2017-May-17 15:30N 62°28' E 006°09'0 0.0
2017-May-17 15:00N 62°28' E 006°09'0 0.0
2017-May-17 14:30N 62°28' E 006°09'0 0.0
2017-May-17 13:27N 62°28' E 006°09'0 0.0
2017-May-17 13:00N 62°28' E 006°09'0 0.0
2017-May-17 12:30N 62°28' E 006°09'0 0.0
2017-May-17 12:00N 62°28' E 006°09'0 0.0
2017-May-17 11:30N 62°28' E 006°09'0 0.0
2017-May-17 11:00N 62°28' E 006°09'0 0.0
2017-May-17 10:30N 62°28' E 006°09'0 0.0
2017-May-17 10:00N 62°28' E 006°09'0 0.0
2017-May-17 09:30N 62°28' E 006°09'0 0.0
2017-May-17 09:00N 62°28' E 006°09'0 0.0
2017-May-17 07:48N 62°28' E 006°09'0 0.0
2017-May-17 07:30N 62°28' E 006°09'0 0.0
2017-May-17 07:00N 62°28' E 006°09'0 0.0
2017-May-17 06:30N 62°28' E 006°09'0 0.0
2017-May-17 06:00N 62°28' E 006°09'0 0.1
2017-May-17 05:30N 62°28' E 006°09'1 1.8
2017-May-17 05:00N 62°27' E 006°10'611.0
2017-May-17 04:29N 62°27' E 005°58'713.2
2017-May-17 03:59N 62°30' E 005°45'713.8
2017-May-17 03:30N 62°29' E 005°30'714.5
2017-May-17 03:00N 62°26' E 005°16'814.8
2017-May-17 02:29N 62°22' E 005°02'714.7
2017-May-17 02:00N 62°19' E 004°48'8713.5
2017-May-16 19:34N 60°54' E 004°16'114.4
2017-May-16 19:30N 60°53' E 004°18'714.2
2017-May-16 19:00N 60°49' E 004°29'714.4
2017-May-16 18:30N 60°45' E 004°41'612.4
2017-May-16 18:00N 60°40' E 004°51'714.2
2017-May-16 17:31N 60°34' E 004°55'714.5
2017-May-16 17:00N 60°27' E 005°01'612.2
2017-May-16 16:30N 60°23' E 005°11'4 8.8
2017-May-16 16:00N 60°24' E 005°19'0 0.3
2017-May-16 15:30N 60°24' E 005°19'0 0.0
2017-May-16 15:00N 60°24' E 005°19'0 0.0
2017-May-16 14:30N 60°24' E 005°19'0 0.0
2017-May-16 13:30N 60°24' E 005°19'0 0.0
2017-May-16 13:00N 60°24' E 005°19'0 0.0
2017-May-16 12:30N 60°24' E 005°19'0 0.0
2017-May-16 12:00N 60°24' E 005°19'0 0.0
2017-May-16 11:30N 60°24' E 005°19'0 0.0
2017-May-16 10:57N 60°24' E 005°19'0 0.0
2017-May-16 10:30N 60°24' E 005°19'0 0.0
2017-May-16 10:00N 60°24' E 005°19'0 0.0
2017-May-16 09:30N 60°24' E 005°19'0 0.0
2017-May-16 09:00N 60°24' E 005°19'0 0.0
2017-May-16 08:30N 60°24' E 005°19'0 0.0
2017-May-16 08:00N 60°24' E 005°19'0 0.0
2017-May-16 07:30N 60°24' E 005°19'0 0.0
2017-May-16 07:00N 60°24' E 005°19'0 0.0
2017-May-16 06:27N 60°24' E 005°19'0 0.0
2017-May-16 06:00N 60°24' E 005°19'0 0.3
2017-May-16 05:30N 60°24' E 005°19'4 7.0
2017-May-16 04:59N 60°23' E 005°12'5 9.6
2017-May-16 04:29N 60°25' E 005°03'713.9
2017-May-16 04:00N 60°32' E 004°57'714.6
2017-May-16 03:30N 60°38' E 004°52'713.3
2017-May-16 03:00N 60°44' E 004°45'510.5
2017-May-16 02:30N 60°44' E 004°34'612.2
2017-May-16 02:00N 60°43' E 004°22'9312.6
2017-May-15 18:39N 59°11' E 004°49'213.5
2017-May-15 18:30N 59°10' E 004°52'713.5
2017-May-15 18:00N 59°05' E 005°02'612.8
2017-May-15 17:30N 59°04' E 005°14'713.6
2017-May-15 17:00N 59°07' E 005°26'611.1
2017-May-15 16:30N 59°03' E 005°35'612.6
2017-May-15 16:00N 58°59' E 005°43'0 0.8
2017-May-15 15:29N 58°58' E 005°44'0 0.0
2017-May-15 14:59N 58°58' E 005°44'0 0.0
2017-May-15 13:59N 58°58' E 005°44'0 0.0
2017-May-15 13:29N 58°58' E 005°44'0 0.0
2017-May-15 12:59N 58°58' E 005°44'0 0.0
2017-May-15 12:29N 58°58' E 005°44'0 0.0
2017-May-15 11:59N 58°58' E 005°44'0 0.0
2017-May-15 11:29N 58°58' E 005°44'0 0.0
2017-May-15 10:59N 58°58' E 005°44'0 0.0
2017-May-15 10:29N 58°58' E 005°44'0 0.0
2017-May-15 09:59N 58°58' E 005°44'0 0.0
2017-May-15 09:29N 58°58' E 005°44'0 0.0
2017-May-15 08:59N 58°58' E 005°44'0 0.0
2017-May-15 08:29N 58°58' E 005°44'0 0.0
2017-May-15 07:59N 58°58' E 005°44'0 0.0
2017-May-15 07:29N 58°58' E 005°44'0 0.0
2017-May-15 06:59N 58°58' E 005°44'0 0.0
2017-May-15 06:29N 58°58' E 005°44'0 0.0
2017-May-15 06:00N 58°59' E 005°44'2 3.1
2017-May-15 05:30N 58°60' E 005°42'4 7.9
2017-May-15 05:00N 59°02' E 005°36'3 5.6
2017-May-15 04:30N 59°04' E 005°32'3 6.4
2017-May-15 04:01N 59°06' E 005°28'510.5
2017-May-15 03:31N 59°04' E 005°18'510.7
2017-May-15 03:00N 59°01' E 005°10'510.2
2017-May-15 02:30N 58°56' E 005°06'510.2
2017-May-15 02:00N 58°51' E 005°04'510.3
2017-May-15 01:30N 58°46' E 005°02'  
Track history (hours):
 
Tides and Currents Weather Stations Pressure Air Temp Water Temp Dewpoint Dewpoint Depression Visibility Wind Speed Wind Dir Waves Ship Positions

Serenade Of The Seas

Operator: Royal Caribbean Cruises Ltd

Last reported at 2017-May-25 01:16 UTC. Time now 2017-May-25 03:02 UTC.
Position N 59°57' E 025°54'.

Length 294 m; draft 8.5 m.

Type: Ship. MMSI: 311492000.

Date/timePositionNaut miles runAvg speedWind from/ knotsBaromVisibWave heightAir tempDewpointWater temp
2017-May-25 01:16N 59°57' E 025°54'621.8
2017-May-25 01:00N 59°58' E 026°04'1121.3
2017-May-25 00:30N 60°01' E 026°25'1019.5
2017-May-25 00:00N 60°01' E 026°45'1817.4
2017-May-24 22:58N 60°05' E 027°20'1517.9
2017-May-24 22:07N 60°12' E 027°46'215.9
2017-May-24 22:00N 60°12' E 027°50'918.2
2017-May-24 21:30N 60°10' E 028°08'918.0
2017-May-24 21:00N 60°05' E 028°23'917.8
2017-May-24 20:30N 60°03' E 028°41'918.0
2017-May-24 20:00N 60°02' E 028°59'2014.6
2017-May-24 18:36N 59°60' E 029°39'310.9
2017-May-24 18:22N 59°59' E 029°44'410.0
2017-May-24 18:00N 59°57' E 029°50'611.1
2017-May-24 17:30N 59°55' E 030°01'5 9.3
2017-May-24 17:00N 59°57' E 030°10'1 1.4
2017-May-24 16:28N 59°57' E 030°11'0 0.0
2017-May-24 15:58N 59°57' E 030°11'0 0.0
2017-May-24 15:28N 59°57' E 030°11'0 0.0
2017-May-24 14:58N 59°57' E 030°11'0 0.0
2017-May-24 14:28N 59°57' E 030°11'0 0.0
2017-May-24 13:28N 59°57' E 030°11'0 0.0
2017-May-24 12:58N 59°57' E 030°11'0 0.0
2017-May-24 12:28N 59°57' E 030°11'0 0.0
2017-May-24 11:58N 59°57' E 030°11'0 0.0
2017-May-24 11:28N 59°57' E 030°11'0 0.0
2017-May-24 10:58N 59°57' E 030°11'0 0.0
2017-May-24 10:28N 59°57' E 030°11'0 0.0
2017-May-24 09:58N 59°57' E 030°11'0 0.0
2017-May-24 09:28N 59°57' E 030°11'0 0.0
2017-May-24 08:58N 59°57' E 030°11'0 0.0
2017-May-24 08:28N 59°57' E 030°11'0 0.0
2017-May-24 07:58N 59°57' E 030°11'0 0.0
2017-May-24 07:28N 59°57' E 030°11'0 0.0
2017-May-24 06:58N 59°57' E 030°11'0 0.0
2017-May-24 06:28N 59°57' E 030°11'0 0.0
2017-May-24 05:58N 59°57' E 030°11'0 0.0
2017-May-24 05:28N 59°57' E 030°11'0 0.0
2017-May-24 04:58N 59°57' E 030°11'0 0.0
2017-May-24 04:28N 59°57' E 030°11'0 0.0
2017-May-24 03:58N 59°57' E 030°11'0 0.0
2017-May-24 03:29N 59°57' E 030°11'2 3.5
2017-May-24 03:00N 59°57' E 030°08'5 9.8
2017-May-24 02:30N 59°56' E 029°58'612.0
2017-May-24 02:00N 59°58' E 029°47'2312.5
2017-May-24 00:13N 60°02' E 029°03'516.0
2017-May-23 23:54N 60°02' E 028°53'616.2
2017-May-23 23:30N 60°02' E 028°40'815.9
2017-May-23 23:00N 60°04' E 028°25'816.2
2017-May-23 22:30N 60°08' E 028°11'816.2
2017-May-23 22:00N 60°10' E 027°55'815.1
2017-May-23 21:30N 60°09' E 027°40'815.9
2017-May-23 21:00N 60°05' E 027°27'815.7
2017-May-23 20:31N 60°01' E 027°13'815.6
2017-May-23 20:01N 59°58' E 026°59'815.8
2017-May-23 19:31N 59°59' E 026°43'815.7
2017-May-23 19:01N 59°58' E 026°28'816.0
2017-May-23 18:30N 59°55' E 026°12'815.9
2017-May-23 18:00N 59°53' E 025°57'815.9
2017-May-23 17:30N 59°52' E 025°41'47 3.7
2017-May-23 04:52N 59°30' E 024°19'717.5
2017-May-23 04:29N 59°30' E 024°06'917.6
2017-May-23 04:00N 59°30' E 023°49'917.5
2017-May-23 03:30N 59°30' E 023°33'917.4
2017-May-23 03:00N 59°30' E 023°15'917.9
2017-May-23 02:30N 59°28' E 022°58'10416.8
2017-May-22 20:17N 59°47' E 019°36'517.0
2017-May-22 20:00N 59°47' E 019°26'713.9
2017-May-22 19:31N 59°44' E 019°13'816.5
2017-May-22 19:00N 59°41' E 018°58'5 9.8
2017-May-22 18:30N 59°38' E 018°51'612.2
2017-May-22 18:01N 59°35' E 018°40'910.3
2017-May-22 17:08N 59°29' E 018°27'212.8
2017-May-22 17:00N 59°27' E 018°26'4 8.5
2017-May-22 16:29N 59°23' E 018°27'3 7.2
2017-May-22 16:00N 59°22' E 018°20'611.6
2017-May-22 15:30N 59°19' E 018°10'2 3.7
2017-May-22 14:56N 59°19' E 018°06'0 0.0
2017-May-22 13:59N 59°19' E 018°06'0 0.0
2017-May-22 13:29N 59°19' E 018°06'0 0.0
2017-May-22 12:59N 59°19' E 018°06'0 0.0
2017-May-22 12:29N 59°19' E 018°06'0 0.0
2017-May-22 11:59N 59°19' E 018°06'0 0.0
2017-May-22 11:29N 59°19' E 018°06'0 0.0
2017-May-22 10:59N 59°19' E 018°06'0 0.0
2017-May-22 10:29N 59°19' E 018°06'0 0.0
2017-May-22 09:59N 59°19' E 018°06'0 0.0
2017-May-22 09:29N 59°19' E 018°06'0 0.0
2017-May-22 08:59N 59°19' E 018°06'0 0.0
2017-May-22 08:29N 59°19' E 018°06'0 0.0
2017-May-22 07:59N 59°19' E 018°06'0 0.0
2017-May-22 07:29N 59°19' E 018°06'0 0.0
2017-May-22 06:59N 59°19' E 018°06'2 3.6
2017-May-22 06:31N 59°19' E 018°09'611.5
2017-May-22 06:00N 59°23' E 018°18'4 8.9
2017-May-22 05:30N 59°22' E 018°27'5 9.3
2017-May-22 05:01N 59°27' E 018°24'20712.5
2017-May-21 12:28N 56°05' E 016°52'920.3
2017-May-21 12:00N 55°60' E 016°39'1020.2
2017-May-21 11:30N 55°54' E 016°24'1020.3
2017-May-21 11:00N 55°49' E 016°08'1020.4
2017-May-21 10:30N 55°44' E 015°53'1020.1
2017-May-21 10:00N 55°39' E 015°37'1020.2
2017-May-21 09:30N 55°35' E 015°21'1020.4
2017-May-21 09:00N 55°30' E 015°04'1020.5
2017-May-21 08:30N 55°26' E 014°48'1020.1
2017-May-21 08:00N 55°20' E 014°34'1020.0
2017-May-21 07:30N 55°12' E 014°22'1020.6
2017-May-21 07:00N 55°05' E 014°11'1020.3
2017-May-21 06:30N 54°59' E 013°56'2320.2
2017-May-21 05:22N 54°51' E 013°18'720.2
2017-May-21 05:00N 54°49' E 013°06'1019.9
2017-May-21 04:30N 54°47' E 012°49'1019.1
2017-May-21 04:00N 54°42' E 012°35'1119.2
2017-May-21 03:26N 54°36' E 012°20'3816.3
2017-May-21 01:08N 54°33' E 011°15'620.2
2017-May-21 00:50N 54°37' E 011°06'719.9
2017-May-21 00:30N 54°40' E 010°57'917.8
2017-May-21 00:00N 54°48' E 010°51'1019.8
2017-May-20 23:30N 54°58' E 010°58'8813.8
2017-May-20 17:10N 56°10' E 012°26'318.8
2017-May-20 17:00N 56°08' E 012°30'917.2
2017-May-20 16:30N 56°01' E 012°40'816.6
2017-May-20 16:00N 55°54' E 012°45'816.4
2017-May-20 15:30N 55°46' E 012°41'4 7.3
2017-May-20 15:01N 55°43' E 012°37'0 0.0
2017-May-20 13:58N 55°43' E 012°37'0 0.0
2017-May-20 13:28N 55°43' E 012°37'0 0.0
2017-May-20 12:58N 55°43' E 012°37'0 0.0
2017-May-20 12:28N 55°43' E 012°37'0 0.0
2017-May-20 11:55N 55°43' E 012°37'0 0.0
2017-May-20 11:28N 55°43' E 012°37'0 0.0
2017-May-20 10:58N 55°43' E 012°37'0 0.0
2017-May-20 10:28N 55°43' E 012°37'0 0.0
2017-May-20 09:58N 55°43' E 012°37'0 0.0
2017-May-20 09:28N 55°43' E 012°37'0 0.0
2017-May-20 08:58N 55°43' E 012°37'0 0.0
2017-May-20 08:28N 55°43' E 012°37'0 0.0
2017-May-20 07:58N 55°43' E 012°37'0 0.0
2017-May-20 07:28N 55°43' E 012°37'0 0.0
2017-May-20 06:58N 55°43' E 012°37'0 0.0
2017-May-20 06:28N 55°43' E 012°37'0 0.0
2017-May-20 05:58N 55°43' E 012°37'0 0.0
2017-May-20 05:28N 55°43' E 012°37'0 0.0
2017-May-20 04:58N 55°43' E 012°37'0 0.4
2017-May-20 04:30N 55°43' E 012°37'4 8.9
2017-May-20 04:00N 55°47' E 012°42'713.9
2017-May-20 03:31N 55°53' E 012°39'714.3
2017-May-20 03:01N 56°00' E 012°40'815.4
2017-May-20 02:31N 56°07' E 012°32'3817.1
2017-May-20 00:16N 56°38' E 011°54'617.8
2017-May-19 23:57N 56°44' E 011°51'815.1
2017-May-19 23:27N 56°51' E 011°47'818.8
2017-May-19 23:01N 56°59' E 011°42'1018.7
2017-May-19 22:30N 57°08' E 011°36'1018.1
2017-May-19 21:57N 57°17' E 011°30'817.9
2017-May-19 21:30N 57°25' E 011°25'917.6
2017-May-19 21:00N 57°32' E 011°15'918.0
2017-May-19 20:31N 57°38' E 011°03'918.2
2017-May-19 20:00N 57°44' E 010°50'918.4
2017-May-19 19:30N 57°50' E 010°37'918.1
2017-May-19 18:59N 57°50' E 010°19'918.1
2017-May-19 18:31N 57°50' E 010°03'918.1
2017-May-19 18:01N 57°50' E 009°46'918.2
2017-May-19 17:30N 57°48' E 009°29'918.2
2017-May-19 17:00N 57°47' E 009°12'917.3
2017-May-19 16:30N 57°46' E 008°56'917.1
2017-May-19 16:00N 57°44' E 008°40'3718.5
2017-May-19 14:01N 57°42' E 007°31'1019.5
2017-May-19 13:30N 57°43' E 007°12'1019.6
2017-May-19 13:00N 57°43' E 006°54'1219.6
2017-May-19 12:23N 57°44' E 006°32'919.5
2017-May-19 11:56N 57°49' E 006°18'919.9
2017-May-19 11:30N 57°54' E 006°05'2720.0
2017-May-19 10:07N 58°14' E 005°28'1220.1
2017-May-19 09:31N 58°22' E 005°11'020.5
2017-May-19 09:30N 58°22' E 005°11'1020.5
2017-May-19 09:00N 58°29' E 004°58'1221.4
2017-May-19 08:27N 58°38' E 004°42'21819.3
2017-May-18 21:09N 62°16' E 004°37'320.1
2017-May-18 21:00N 62°18' E 004°43'1020.1
2017-May-18 20:30N 62°22' E 005°03'1019.6
2017-May-18 20:00N 62°27' E 005°21'918.9
2017-May-18 19:30N 62°30' E 005°40'916.9
2017-May-18 19:00N 62°27' E 005°58'713.6
2017-May-18 18:30N 62°23' E 006°10'917.3
2017-May-18 18:00N 62°25' E 006°28'817.2
2017-May-18 17:31N 62°27' E 006°46'814.7
2017-May-18 17:00N 62°21' E 006°56'816.4
2017-May-18 16:30N 62°14' E 007°01'814.3
2017-May-18 15:59N 62°06' E 006°58'4 8.6
2017-May-18 15:30N 62°07' E 007°07'3 5.0
2017-May-18 15:00N 62°06' E 007°12'0 0.1
2017-May-18 14:29N 62°06' E 007°12'0 0.0
2017-May-18 13:29N 62°06' E 007°12'0 0.0
2017-May-18 12:59N 62°06' E 007°12'0 0.0
2017-May-18 12:29N 62°06' E 007°12'0 0.0
2017-May-18 11:59N 62°06' E 007°12'0 0.0
2017-May-18 11:29N 62°06' E 007°12'0 0.0
2017-May-18 10:59N 62°06' E 007°12'0 0.0
2017-May-18 10:29N 62°06' E 007°12'0 0.0
2017-May-18 09:59N 62°06' E 007°12'0 0.0
2017-May-18 09:29N 62°06' E 007°12'0 0.0
2017-May-18 08:59N 62°06' E 007°12'0 0.0
2017-May-18 08:29N 62°06' E 007°12'0 0.0
2017-May-18 07:59N 62°06' E 007°12'0 0.0
2017-May-18 07:29N 62°06' E 007°12'0 0.0
2017-May-18 06:59N 62°06' E 007°12'0 0.0
2017-May-18 06:29N 62°06' E 007°12'0 0.0
2017-May-18 05:59N 62°06' E 007°12'0 0.0
2017-May-18 05:29N 62°06' E 007°12'0 0.0
2017-May-18 04:59N 62°06' E 007°12'0 0.0
2017-May-18 04:29N 62°06' E 007°12'0 0.1
2017-May-18 04:00N 62°06' E 007°12'2 4.5
2017-May-18 03:30N 62°07' E 007°07'3 6.1
2017-May-18 02:59N 62°05' E 007°02'3 4.7
2017-May-18 02:16N 62°09' E 006°58'2 6.2
2017-May-18 02:00N 62°10' E 007°00'3 6.0
2017-May-18 01:30N 62°13' E 007°01'3 6.2
2017-May-18 01:00N 62°16' E 007°01'3 6.1
2017-May-18 00:30N 62°19' E 006°59'3 6.2
2017-May-17 23:59N 62°22' E 006°56'3 6.2
2017-May-17 23:30N 62°25' E 006°56'3 5.8
2017-May-17 23:00N 62°27' E 006°51'3 6.4
2017-May-17 22:30N 62°27' E 006°44'3 6.2
2017-May-17 22:00N 62°27' E 006°38'3 6.1
2017-May-17 21:30N 62°26' E 006°32'3 6.1
2017-May-17 21:00N 62°24' E 006°25'3 6.1
2017-May-17 20:30N 62°23' E 006°19'3 6.1
2017-May-17 20:00N 62°23' E 006°13'3 5.8
2017-May-17 19:30N 62°24' E 006°07'3 4.8
2017-May-17 18:47N 62°27' E 006°03'2 5.7
2017-May-17 18:29N 62°27' E 006°07'2 3.5
2017-May-17 18:00N 62°28' E 006°09'0 0.0
2017-May-17 17:30N 62°28' E 006°09'0 0.0
2017-May-17 17:00N 62°28' E 006°09'0 0.0
2017-May-17 16:27N 62°28' E 006°09'0 0.0
2017-May-17 16:00N 62°28' E 006°09'0 0.0
2017-May-17 15:30N 62°28' E 006°09'0 0.0
2017-May-17 15:00N 62°28' E 006°09'0 0.0
2017-May-17 14:30N 62°28' E 006°09'0 0.0
2017-May-17 13:27N 62°28' E 006°09'0 0.0
2017-May-17 13:00N 62°28' E 006°09'0 0.0
2017-May-17 12:30N 62°28' E 006°09'0 0.0
2017-May-17 12:00N 62°28' E 006°09'0 0.0
2017-May-17 11:30N 62°28' E 006°09'0 0.0
2017-May-17 11:00N 62°28' E 006°09'0 0.0
2017-May-17 10:30N 62°28' E 006°09'0 0.0
2017-May-17 10:00N 62°28' E 006°09'0 0.0
2017-May-17 09:30N 62°28' E 006°09'0 0.0
2017-May-17 09:00N 62°28' E 006°09'0 0.0
2017-May-17 07:48N 62°28' E 006°09'0 0.0
2017-May-17 07:30N 62°28' E 006°09'0 0.0
2017-May-17 07:00N 62°28' E 006°09'0 0.0
2017-May-17 06:30N 62°28' E 006°09'0 0.0
2017-May-17 06:00N 62°28' E 006°09'0 0.1
2017-May-17 05:30N 62°28' E 006°09'1 1.8
2017-May-17 05:00N 62°27' E 006°10'611.0
2017-May-17 04:29N 62°27' E 005°58'713.2
2017-May-17 03:59N 62°30' E 005°45'713.8
2017-May-17 03:30N 62°29' E 005°30'714.5
2017-May-17 03:00N 62°26' E 005°16'814.8
2017-May-17 02:29N 62°22' E 005°02'714.7
2017-May-17 02:00N 62°19' E 004°48'8713.5
2017-May-16 19:34N 60°54' E 004°16'114.4
2017-May-16 19:30N 60°53' E 004°18'714.2
2017-May-16 19:00N 60°49' E 004°29'714.4
2017-May-16 18:30N 60°45' E 004°41'612.4
2017-May-16 18:00N 60°40' E 004°51'714.2
2017-May-16 17:31N 60°34' E 004°55'714.5
2017-May-16 17:00N 60°27' E 005°01'612.2
2017-May-16 16:30N 60°23' E 005°11'4 8.8
2017-May-16 16:00N 60°24' E 005°19'0 0.3
2017-May-16 15:30N 60°24' E 005°19'0 0.0
2017-May-16 15:00N 60°24' E 005°19'0 0.0
2017-May-16 14:30N 60°24' E 005°19'0 0.0
2017-May-16 13:30N 60°24' E 005°19'0 0.0
2017-May-16 13:00N 60°24' E 005°19'0 0.0
2017-May-16 12:30N 60°24' E 005°19'0 0.0
2017-May-16 12:00N 60°24' E 005°19'0 0.0
2017-May-16 11:30N 60°24' E 005°19'0 0.0
2017-May-16 10:57N 60°24' E 005°19'0 0.0
2017-May-16 10:30N 60°24' E 005°19'0 0.0
2017-May-16 10:00N 60°24' E 005°19'0 0.0
2017-May-16 09:30N 60°24' E 005°19'0 0.0
2017-May-16 09:00N 60°24' E 005°19'0 0.0
2017-May-16 08:30N 60°24' E 005°19'0 0.0
2017-May-16 08:00N 60°24' E 005°19'0 0.0
2017-May-16 07:30N 60°24' E 005°19'0 0.0
2017-May-16 07:00N 60°24' E 005°19'0 0.0
2017-May-16 06:27N 60°24' E 005°19'0 0.0
2017-May-16 06:00N 60°24' E 005°19'0 0.3
2017-May-16 05:30N 60°24' E 005°19'4 7.0
2017-May-16 04:59N 60°23' E 005°12'5 9.6
2017-May-16 04:29N 60°25' E 005°03'713.9
2017-May-16 04:00N 60°32' E 004°57'714.6
2017-May-16 03:30N 60°38' E 004°52'713.3
2017-May-16 03:00N 60°44' E 004°45'510.5
2017-May-16 02:30N 60°44' E 004°34'612.2
2017-May-16 02:00N 60°43' E 004°22'9312.6
2017-May-15 18:39N 59°11' E 004°49'213.5
2017-May-15 18:30N 59°10' E 004°52'713.5
2017-May-15 18:00N 59°05' E 005°02'612.8
2017-May-15 17:30N 59°04' E 005°14'713.6
2017-May-15 17:00N 59°07' E 005°26'611.1
2017-May-15 16:30N 59°03' E 005°35'612.6
2017-May-15 16:00N 58°59' E 005°43'0 0.8
2017-May-15 15:29N 58°58' E 005°44'0 0.0
2017-May-15 14:59N 58°58' E 005°44'0 0.0
2017-May-15 13:59N 58°58' E 005°44'0 0.0
2017-May-15 13:29N 58°58' E 005°44'0 0.0
2017-May-15 12:59N 58°58' E 005°44'0 0.0
2017-May-15 12:29N 58°58' E 005°44'0 0.0
2017-May-15 11:59N 58°58' E 005°44'0 0.0
2017-May-15 11:29N 58°58' E 005°44'0 0.0
2017-May-15 10:59N 58°58' E 005°44'0 0.0
2017-May-15 10:29N 58°58' E 005°44'0 0.0
2017-May-15 09:59N 58°58' E 005°44'0 0.0
2017-May-15 09:29N 58°58' E 005°44'0 0.0
2017-May-15 08:59N 58°58' E 005°44'0 0.0
2017-May-15 08:29N 58°58' E 005°44'0 0.0
2017-May-15 07:59N 58°58' E 005°44'0 0.0
2017-May-15 07:29N 58°58' E 005°44'0 0.0
2017-May-15 06:59N 58°58' E 005°44'0 0.0
2017-May-15 06:29N 58°58' E 005°44'0 0.0
2017-May-15 06:00N 58°59' E 005°44'2 3.1
2017-May-15 05:30N 58°60' E 005°42'4 7.9
2017-May-15 05:00N 59°02' E 005°36'3 5.6
2017-May-15 04:30N 59°04' E 005°32'3 6.4
2017-May-15 04:01N 59°06' E 005°28'510.5
2017-May-15 03:31N 59°04' E 005°18'510.7
2017-May-15 03:00N 59°01' E 005°10'510.2
2017-May-15 02:30N 58°56' E 005°06'510.2
2017-May-15 02:00N 58°51' E 005°04'510.3
2017-May-15 01:30N 58°46' E 005°02'  

Dump ship's entire track history